Time;durP1;ratioP1;P1;durP2;ratioP2;P2;SDS_P1;SDS_P2;PMS_P1;PMS_P2;Temp;Humidity;BMP_temperature;BMP_pressure;BME280_temperature;BME280_humidity;BME280_pressure;Samples;Min_cycle;Max_cycle;Signal;HPM_P1;HPM_P2
2022/04/07 00:01:28;;;;;;;7.28;5.97;;;10.60;96.90;;;;;;5083437;28;20441;-52
2022/04/07 00:04:13;;;;;;;9.82;6.20;;;10.50;97.00;;;;;;5093024;28;20093;-52
2022/04/07 00:06:57;;;;;;;10.25;6.55;;;10.50;97.10;;;;;;5097430;28;20042;-50
2022/04/07 00:09:41;;;;;;;7.45;6.15;;;10.50;97.10;;;;;;5089229;28;20108;-56
2022/04/07 00:12:25;;;;;;;8.13;5.30;;;10.50;97.10;;;;;;5096318;28;20196;-55
2022/04/07 00:15:11;;;;;;;9.50;5.83;;;10.60;97.10;;;;;;5104450;28;20116;-53
2022/04/07 00:17:56;;;;;;;8.23;5.97;;;10.60;97.10;;;;;;5092441;28;20479;-53
2022/04/07 00:20:43;;;;;;;7.53;5.72;;;10.60;97.10;;;;;;5082625;28;20035;-49
2022/04/07 00:23:27;;;;;;;8.10;5.28;;;10.60;97.10;;;;;;5085201;28;20097;-51
2022/04/07 00:26:11;;;;;;;8.52;5.93;;;10.70;96.90;;;;;;5084992;28;20035;-53
2022/04/07 00:28:55;;;;;;;6.33;5.43;;;10.80;97.00;;;;;;5082801;28;20043;-51
2022/04/07 00:31:39;;;;;;;6.80;5.60;;;10.70;96.90;;;;;;5081816;28;20185;-51
2022/04/07 00:34:24;;;;;;;7.45;6.03;;;10.60;97.10;;;;;;5083092;28;20036;-52
2022/04/07 00:37:08;;;;;;;8.05;5.55;;;10.60;97.30;;;;;;5083921;28;20086;-54
2022/04/07 00:39:53;;;;;;;7.77;5.63;;;10.50;97.40;;;;;;5093345;28;20075;-51
2022/04/07 00:42:48;;;;;;;7.80;5.95;;;10.50;97.60;;;;;;5092505;28;20039;-49
2022/04/07 00:45:33;;;;;;;8.35;5.55;;;10.50;97.60;;;;;;5091321;28;20078;-50
2022/04/07 00:48:16;;;;;;;7.97;5.32;;;10.50;97.70;;;;;;5090858;28;20089;-52
2022/04/07 00:51:02;;;;;;;8.55;5.43;;;10.50;97.70;;;;;;5086539;28;20048;-51
2022/04/07 00:53:46;;;;;;;8.30;5.55;;;10.50;97.70;;;;;;5072227;28;20038;-50
2022/04/07 00:56:31;;;;;;;7.18;5.63;;;10.50;97.80;;;;;;5091181;28;20031;-55
2022/04/07 00:59:17;;;;;;;6.25;5.28;;;10.50;97.80;;;;;;5091589;28;20081;-55
2022/04/07 01:02:01;;;;;;;8.93;5.18;;;10.50;97.90;;;;;;5092429;28;20070;-51
2022/04/07 01:04:45;;;;;;;6.00;5.22;;;10.50;97.90;;;;;;5083560;28;20055;-51
2022/04/07 01:07:29;;;;;;;8.82;5.68;;;10.40;98.00;;;;;;5072161;28;20090;-54
2022/04/07 01:10:14;;;;;;;8.68;4.70;;;10.40;98.10;;;;;;5085180;28;20108;-52
2022/04/07 01:12:58;;;;;;;9.10;6.22;;;10.40;98.10;;;;;;5091108;28;20113;-54
2022/04/07 01:15:42;;;;;;;7.60;4.87;;;10.40;98.10;;;;;;5091747;28;20066;-52
2022/04/07 01:18:26;;;;;;;6.03;5.22;;;10.40;98.20;;;;;;5081864;28;20278;-52
2022/04/07 01:21:10;;;;;;;9.63;5.18;;;10.40;98.30;;;;;;5090080;28;20077;-52
2022/04/07 01:24:02;;;;;;;9.57;5.57;;;10.40;98.20;;;;;;5082325;28;20729;-51
2022/04/07 01:26:46;;;;;;;7.85;5.10;;;10.50;98.20;;;;;;5071554;28;20086;-52
2022/04/07 01:29:30;;;;;;;6.60;5.53;;;10.40;98.30;;;;;;5072651;28;20051;-53
2022/04/07 01:32:30;;;;;;;6.50;5.03;;;10.40;98.30;;;;;;5073097;28;20040;-53
2022/04/07 01:35:15;;;;;;;8.13;5.10;;;10.50;98.20;;;;;;5091578;28;20028;-54
2022/04/07 01:38:01;;;;;;;8.32;4.90;;;10.50;98.20;;;;;;5082678;28;20066;-52
2022/04/07 01:40:47;;;;;;;7.07;4.95;;;10.50;98.30;;;;;;5099545;28;20032;-51
2022/04/07 01:43:32;;;;;;;6.25;4.95;;;10.50;98.20;;;;;;5088525;28;20043;-50
2022/04/07 01:46:19;;;;;;;7.50;4.55;;;10.50;98.30;;;;;;5090656;28;20161;-52
2022/04/07 01:49:04;;;;;;;9.05;5.30;;;10.50;98.40;;;;;;5071837;28;20075;-53
2022/04/07 01:51:49;;;;;;;5.65;4.80;;;10.40;98.50;;;;;;5076238;28;20737;-52
2022/04/07 01:54:35;;;;;;;7.75;4.90;;;10.40;98.70;;;;;;5091954;28;20094;-55
2022/04/07 01:57:23;;;;;;;9.30;4.82;;;10.30;98.90;;;;;;5090712;28;20051;-54
2022/04/07 02:00:07;;;;;;;6.28;5.10;;;10.40;98.80;;;;;;5092294;28;20278;-57
2022/04/07 02:02:51;;;;;;;6.43;4.85;;;10.40;98.90;;;;;;5090976;28;20078;-50
2022/04/07 02:05:36;;;;;;;9.52;5.30;;;10.40;98.90;;;;;;5090961;28;20051;-51
2022/04/07 02:08:20;;;;;;;8.82;4.90;;;10.50;98.90;;;;;;5092045;28;20097;-48
2022/04/07 02:11:04;;;;;;;5.80;4.55;;;10.50;99.00;;;;;;5085598;28;20087;-51
2022/04/07 02:13:49;;;;;;;7.13;5.32;;;10.50;98.90;;;;;;5072095;28;20124;-48
2022/04/07 02:16:34;;;;;;;7.18;4.65;;;10.50;99.00;;;;;;5072157;28;20035;-54
2022/04/07 02:19:18;;;;;;;7.65;4.93;;;10.50;99.10;;;;;;5071221;28;20031;-48
2022/04/07 02:22:02;;;;;;;7.47;4.82;;;10.60;99.00;;;;;;5084507;28;20085;-51
2022/04/07 02:24:47;;;;;;;6.77;5.13;;;10.50;99.10;;;;;;5091962;28;20085;-52
2022/04/07 02:27:36;;;;;;;7.60;4.85;;;10.60;99.20;;;;;;5074647;28;20115;-53
2022/04/07 02:30:20;;;;;;;7.72;4.60;;;10.50;99.20;;;;;;5071741;28;20462;-56
2022/04/07 02:33:04;;;;;;;5.43;4.20;;;10.50;99.30;;;;;;5070926;28;20518;-54
2022/04/07 02:35:48;;;;;;;8.10;4.88;;;10.50;99.30;;;;;;5082051;28;20806;-51
2022/04/07 02:38:34;;;;;;;6.93;4.50;;;10.60;99.30;;;;;;5091219;28;20099;-56
2022/04/07 02:41:18;;;;;;;6.70;4.85;;;10.60;99.30;;;;;;5093192;28;20265;-54
2022/04/07 02:44:02;;;;;;;5.90;4.40;;;10.60;99.40;;;;;;5111770;28;20161;-52
2022/04/07 02:46:47;;;;;;;5.70;4.60;;;10.60;99.40;;;;;;5088492;28;20040;-54
2022/04/07 02:49:31;;;;;;;5.90;4.97;;;10.50;99.60;;;;;;5071149;28;20078;-52
2022/04/07 02:52:15;;;;;;;8.15;4.43;;;10.60;99.60;;;;;;5070624;28;20039;-52
2022/04/07 02:54:59;;;;;;;5.22;4.35;;;10.50;99.80;;;;;;5073027;28;20032;-53
2022/04/07 02:57:43;;;;;;;9.48;4.68;;;10.50;99.90;;;;;;5090903;28;20035;-53
2022/04/07 03:00:27;;;;;;;5.35;4.25;;;10.50;99.90;;;;;;5086534;28;20054;-49
2022/04/07 03:03:12;;;;;;;6.45;4.30;;;10.40;99.90;;;;;;5070425;28;20040;-53
2022/04/07 03:05:56;;;;;;;6.43;4.50;;;10.40;99.90;;;;;;5088788;28;20063;-50
2022/04/07 03:08:40;;;;;;;6.80;4.05;;;10.50;99.90;;;;;;5085745;28;20297;-48
2022/04/07 03:11:24;;;;;;;6.22;4.70;;;10.40;99.90;;;;;;5087420;28;20545;-54
2022/04/07 03:14:08;;;;;;;5.72;4.38;;;10.50;99.90;;;;;;5093902;28;20063;-54
2022/04/07 03:16:53;;;;;;;5.43;4.00;;;10.50;99.90;;;;;;5094431;28;20059;-51
2022/04/07 03:19:37;;;;;;;6.07;4.40;;;10.50;99.90;;;;;;5087462;28;20031;-53
2022/04/07 03:22:22;;;;;;;7.72;4.60;;;10.60;99.90;;;;;;5074198;28;20044;-49
2022/04/07 03:25:07;;;;;;;4.97;4.32;;;10.60;99.90;;;;;;5084808;28;20084;-51
2022/04/07 03:27:51;;;;;;;6.25;4.40;;;10.50;99.90;;;;;;5094891;28;20047;-50
2022/04/07 03:30:35;;;;;;;9.07;5.35;;;10.50;99.90;;;;;;5080157;28;20048;-52
2022/04/07 03:33:20;;;;;;;6.63;4.60;;;10.40;99.90;;;;;;5085007;28;20039;-52
2022/04/07 03:36:04;;;;;;;7.82;4.72;;;10.40;99.90;;;;;;5093940;28;20043;-52
2022/04/07 03:38:51;;;;;;;6.78;4.75;;;10.50;99.90;;;;;;5099526;28;20571;-52
2022/04/07 03:41:35;;;;;;;6.78;4.57;;;10.40;99.90;;;;;;5099348;28;20035;-51
2022/04/07 03:44:19;;;;;;;6.05;4.25;;;10.40;99.90;;;;;;5100517;28;20047;-51
2022/04/07 03:47:04;;;;;;;7.77;4.47;;;10.40;99.90;;;;;;5087660;28;20044;-49
2022/04/07 03:49:48;;;;;;;6.95;4.60;;;10.40;99.90;;;;;;5088035;28;20092;-52
2022/04/07 03:52:33;;;;;;;6.88;4.93;;;10.40;99.90;;;;;;5093985;28;20043;-48
2022/04/07 03:55:17;;;;;;;6.70;4.90;;;10.40;99.90;;;;;;5095481;28;20092;-52
2022/04/07 03:58:01;;;;;;;6.33;4.97;;;10.50;99.90;;;;;;5094003;28;20038;-53
2022/04/07 04:00:45;;;;;;;6.73;4.40;;;10.50;99.90;;;;;;5087850;28;20630;-50
2022/04/07 04:03:29;;;;;;;9.75;5.07;;;10.50;99.90;;;;;;5080206;28;20039;-51
2022/04/07 04:06:13;;;;;;;4.72;4.20;;;10.50;99.90;;;;;;5072908;28;20041;-52
2022/04/07 04:08:57;;;;;;;4.77;4.07;;;10.50;99.90;;;;;;5088210;28;20141;-50
2022/04/07 04:11:41;;;;;;;4.75;4.22;;;10.50;99.90;;;;;;5093562;28;20142;-51
2022/04/07 04:14:25;;;;;;;6.13;4.03;;;10.60;99.90;;;;;;5073598;28;20033;-52
2022/04/07 04:17:09;;;;;;;5.28;4.63;;;10.60;99.90;;;;;;5072910;28;20028;-55
2022/04/07 04:19:53;;;;;;;6.00;4.10;;;10.60;99.90;;;;;;5073183;28;20090;-54
2022/04/07 04:22:38;;;;;;;7.10;5.35;;;10.60;99.90;;;;;;5074033;28;20698;-52
2022/04/07 04:25:22;;;;;;;7.32;4.38;;;10.60;99.90;;;;;;5092813;28;20419;-54
2022/04/07 04:28:07;;;;;;;7.10;4.25;;;10.60;99.90;;;;;;5086287;28;20062;-51
2022/04/07 04:30:51;;;;;;;6.93;4.38;;;10.60;99.90;;;;;;5074998;28;20655;-53
2022/04/07 04:33:35;;;;;;;7.10;5.60;;;10.70;99.90;;;;;;5089578;28;20059;-48
2022/04/07 04:36:19;;;;;;;5.53;4.00;;;10.70;99.90;;;;;;5091470;28;20039;-54
2022/04/07 04:39:03;;;;;;;5.57;4.10;;;10.70;99.90;;;;;;5083606;28;20035;-54
2022/04/07 04:41:48;;;;;;;6.50;4.13;;;10.80;99.90;;;;;;5086749;28;20039;-55
2022/04/07 04:44:32;;;;;;;5.63;4.40;;;10.80;99.90;;;;;;5087950;28;20052;-53
2022/04/07 04:47:18;;;;;;;5.03;3.88;;;10.80;99.90;;;;;;5078849;28;20054;-53
2022/04/07 04:50:06;;;;;;;5.40;4.13;;;10.80;99.90;;;;;;5092662;28;20071;-50
2022/04/07 04:52:50;;;;;;;5.55;3.80;;;10.80;99.90;;;;;;5081454;28;20515;-48
2022/04/07 04:55:35;;;;;;;6.53;3.92;;;10.90;99.80;;;;;;5079700;28;20070;-54
2022/04/07 04:58:19;;;;;;;;;;;10.90;99.60;;;;;;5092702;28;20035;-51
2022/04/07 05:01:03;;;;;;;4.85;3.38;;;10.90;99.40;;;;;;5091890;28;19919;-54
2022/04/07 05:03:48;;;;;;;4.90;4.03;;;11.00;99.40;;;;;;5091645;28;20672;-52
2022/04/07 05:06:32;;;;;;;7.20;4.75;;;10.90;99.20;;;;;;5080174;28;20097;-50
2022/04/07 05:09:16;;;;;;;6.05;4.25;;;11.00;99.10;;;;;;5084966;28;20116;-50
2022/04/07 05:12:00;;;;;;;6.25;3.80;;;11.00;99.00;;;;;;5086674;28;20043;-54
2022/04/07 05:14:44;;;;;;;11.07;4.43;;;11.00;98.90;;;;;;5091226;28;20116;-48
2022/04/07 05:17:28;;;;;;;14.27;5.23;;;11.00;99.00;;;;;;5093198;28;20403;-53
2022/04/07 05:20:13;;;;;;;8.77;4.10;;;11.10;99.00;;;;;;5092049;28;20051;-53
2022/04/07 05:22:57;;;;;;;7.10;4.20;;;11.00;99.10;;;;;;5092481;28;20311;-55
2022/04/07 05:25:41;;;;;;;7.63;3.97;;;11.00;99.00;;;;;;5089892;28;20073;-50
2022/04/07 05:28:25;;;;;;;3.87;3.47;;;11.00;99.10;;;;;;5092631;28;20043;-53
2022/04/07 05:31:10;;;;;;;6.15;3.70;;;11.00;99.30;;;;;;5079573;28;20067;-51
2022/04/07 05:33:54;;;;;;;;;;;11.00;99.30;;;;;;5097326;28;20031;-51
2022/04/07 05:36:39;;;;;;;6.72;3.55;;;10.90;99.50;;;;;;5090510;28;19915;-54
2022/04/07 05:39:24;;;;;;;5.47;3.60;;;10.90;99.40;;;;;;5081463;28;20086;-54
2022/04/07 05:42:08;;;;;;;7.22;3.97;;;10.90;99.60;;;;;;5093326;28;20097;-54
2022/04/07 05:44:52;;;;;;;5.05;4.07;;;10.80;99.90;;;;;;5077744;28;20039;-52
2022/04/07 05:47:40;;;;;;;6.53;3.78;;;10.80;99.90;;;;;;5071871;28;20535;-53
2022/04/07 05:50:25;;;;;;;12.00;4.35;;;10.80;99.90;;;;;;5075823;28;20158;-51
2022/04/07 05:53:10;;;;;;;7.72;4.25;;;10.80;99.90;;;;;;5071010;28;20247;-52
2022/04/07 05:55:57;;;;;;;8.55;3.80;;;10.80;99.90;;;;;;5079074;28;20036;-51
2022/04/07 05:58:41;;;;;;;5.72;3.53;;;10.80;99.90;;;;;;5102667;28;20088;-50
2022/04/07 06:01:25;;;;;;;11.60;4.53;;;10.70;99.90;;;;;;5091471;28;20035;-52
2022/04/07 06:04:09;;;;;;;8.13;3.88;;;10.70;99.90;;;;;;5091496;28;20035;-50
2022/04/07 06:06:53;;;;;;;8.30;3.97;;;10.80;99.90;;;;;;5089675;28;20087;-51
2022/04/07 06:09:37;;;;;;;5.68;3.92;;;10.70;99.90;;;;;;5091874;28;20380;-52
2022/04/07 06:12:21;;;;;;;5.00;3.70;;;10.70;99.90;;;;;;5072222;28;20163;-49
2022/04/07 06:15:06;;;;;;;7.18;4.25;;;10.60;99.90;;;;;;5071282;28;20074;-53
2022/04/07 06:17:50;;;;;;;;;;;10.70;99.90;;;;;;5091789;28;20027;-52
2022/04/07 06:20:34;;;;;;;6.40;4.15;;;10.70;99.90;;;;;;5077931;28;19966;-50
2022/04/07 06:23:18;;;;;;;5.95;3.80;;;10.70;99.90;;;;;;5074728;28;20034;-52
2022/04/07 06:26:02;;;;;;;7.25;3.92;;;10.70;99.90;;;;;;5090745;28;20149;-54
2022/04/07 06:28:46;;;;;;;4.75;3.22;;;10.70;99.90;;;;;;5089588;28;20054;-55
2022/04/07 06:31:30;;;;;;;4.07;3.07;;;10.80;99.90;;;;;;5077718;28;20062;-52
2022/04/07 06:34:14;;;;;;;19.90;5.10;;;10.80;99.90;;;;;;5086320;28;20423;-57
2022/04/07 06:37:00;;;;;;;2.90;2.60;;;10.90;99.90;;;;;;5090543;28;20120;-51
2022/04/07 06:39:44;;;;;;;3.22;2.92;;;10.90;99.90;;;;;;5073234;28;20396;-55
2022/04/07 06:42:28;;;;;;;3.75;3.03;;;11.00;99.90;;;;;;5085862;28;20046;-57
2022/04/07 06:45:12;;;;;;;5.60;2.90;;;11.00;99.90;;;;;;5070707;28;20067;-55
2022/04/07 06:47:57;;;;;;;3.10;2.80;;;11.20;99.90;;;;;;5074858;28;20040;-54
2022/04/07 06:50:41;;;;;;;4.95;2.50;;;11.20;99.90;;;;;;5075870;28;20117;-52
2022/04/07 06:53:25;;;;;;;2.70;2.35;;;11.20;99.90;;;;;;5074373;28;20044;-55
2022/04/07 06:56:10;;;;;;;2.63;2.23;;;11.30;99.90;;;;;;5086611;28;20077;-54
2022/04/07 06:58:55;;;;;;;3.53;2.22;;;11.30;99.90;;;;;;5093728;28;20297;-51
2022/04/07 07:01:39;;;;;;;;;;;11.30;99.90;;;;;;5088526;28;20031;-56
2022/04/07 07:04:23;;;;;;;1.85;1.75;;;11.40;99.90;;;;;;5087618;28;19958;-51
2022/04/07 07:07:07;;;;;;;2.30;2.10;;;11.50;99.90;;;;;;5090591;28;20035;-51
2022/04/07 07:09:51;;;;;;;5.50;2.28;;;11.50;99.90;;;;;;5093377;28;20061;-51
2022/04/07 07:12:35;;;;;;;5.60;2.20;;;11.50;99.90;;;;;;5085519;28;20063;-56
2022/04/07 07:15:23;;;;;;;3.83;2.10;;;11.50;99.90;;;;;;5091026;28;20095;-55
2022/04/07 07:18:07;;;;;;;2.65;2.00;;;11.60;99.90;;;;;;5074485;28;20027;-55
2022/04/07 07:20:52;;;;;;;3.38;1.98;;;11.60;99.90;;;;;;5074109;28;20035;-54
2022/04/07 07:23:36;;;;;;;1.95;1.80;;;11.60;99.90;;;;;;5081003;28;20027;-53
2022/04/07 07:26:20;;;;;;;2.03;1.70;;;11.70;99.90;;;;;;5094016;28;20043;-54
2022/04/07 07:29:04;;;;;;;7.18;2.50;;;11.80;99.90;;;;;;5086042;28;20052;-51
2022/04/07 07:31:48;;;;;;;3.38;1.98;;;11.70;99.90;;;;;;5084679;28;20054;-55
2022/04/07 07:34:32;;;;;;;3.67;2.10;;;11.80;99.90;;;;;;5093015;28;20230;-54
2022/04/07 07:37:18;;;;;;;6.27;2.40;;;11.70;99.90;;;;;;5094076;28;20125;-57
2022/04/07 07:40:08;;;;;;;3.08;1.98;;;11.80;99.90;;;;;;5079578;28;20630;-57
2022/04/07 07:42:55;;;;;;;2.60;1.90;;;11.80;99.90;;;;;;5095018;28;20051;-54
2022/04/07 07:45:40;;;;;;;4.72;2.20;;;11.70;99.90;;;;;;5089636;28;20092;-54
2022/04/07 07:48:28;;;;;;;11.03;3.57;;;11.80;99.90;;;;;;5087773;28;20044;-50
2022/04/07 07:51:12;;;;;;;4.78;2.85;;;11.80;99.90;;;;;;5091286;28;20527;-55
2022/04/07 07:53:56;;;;;;;5.65;2.20;;;12.00;99.70;;;;;;5088167;28;20119;-54
2022/04/07 07:56:40;;;;;;;3.47;2.05;;;11.90;99.60;;;;;;5090557;28;20464;-56
2022/04/07 07:59:24;;;;;;;2.40;2.20;;;12.00;99.60;;;;;;5080934;28;20039;-57
2022/04/07 08:02:08;;;;;;;3.10;2.15;;;12.10;99.40;;;;;;5074056;28;20400;-52
2022/04/07 08:04:53;;;;;;;6.60;1.80;;;12.20;99.40;;;;;;5074341;28;20044;-54
2022/04/07 08:07:41;;;;;;;3.40;1.87;;;12.30;99.10;;;;;;5072892;28;20044;-49
2022/04/07 08:10:25;;;;;;;1.88;1.60;;;12.50;98.90;;;;;;5076706;28;20042;-55
2022/04/07 08:13:09;;;;;;;3.80;2.03;;;12.50;98.70;;;;;;5094033;28;20031;-52
2022/04/07 08:15:53;;;;;;;2.10;1.88;;;12.60;98.50;;;;;;5079215;28;20042;-51
2022/04/07 08:18:37;;;;;;;2.57;2.07;;;12.70;98.30;;;;;;5080167;28;20787;-53
2022/04/07 08:21:21;;;;;;;6.60;2.30;;;12.70;98.30;;;;;;5080124;28;20031;-52
2022/04/07 08:24:06;;;;;;;3.75;1.95;;;12.80;98.20;;;;;;5084498;28;20061;-53
2022/04/07 08:26:50;;;;;;;4.15;1.98;;;12.80;98.30;;;;;;5079631;28;20115;-54
2022/04/07 08:29:34;;;;;;;3.22;2.10;;;12.80;98.40;;;;;;5080275;28;20043;-56
2022/04/07 08:32:19;;;;;;;4.57;2.00;;;12.90;98.30;;;;;;5081105;28;20059;-53
2022/04/07 08:35:04;;;;;;;;;;;13.00;97.30;;;;;;5080566;28;20043;-51
2022/04/07 08:37:48;;;;;;;3.30;1.98;;;12.90;97.40;;;;;;5080027;28;19920;-51
2022/04/07 08:40:35;;;;;;;11.67;3.60;;;12.80;97.20;;;;;;5082686;28;20044;-55
2022/04/07 08:43:20;;;;;;;4.10;1.88;;;12.90;96.90;;;;;;5068602;28;20612;-53
2022/04/07 08:46:08;;;;;;;3.43;2.10;;;12.90;96.30;;;;;;5082763;28;20277;-53
2022/04/07 08:48:55;;;;;;;3.10;2.00;;;13.00;96.50;;;;;;5085591;28;20261;-54
2022/04/07 08:51:39;;;;;;;5.32;2.83;;;13.00;96.70;;;;;;5084948;28;20413;-54
2022/04/07 08:54:24;;;;;;;5.95;2.38;;;13.10;96.50;;;;;;5079383;28;20454;-55
2022/04/07 08:57:08;;;;;;;4.07;2.40;;;13.10;96.30;;;;;;5082873;28;20051;-56
2022/04/07 08:59:53;;;;;;;2.22;1.98;;;13.10;95.90;;;;;;5084117;28;20085;-56
2022/04/07 09:02:38;;;;;;;6.93;2.40;;;13.20;95.80;;;;;;5082034;28;20056;-57
2022/04/07 09:05:26;;;;;;;2.90;2.13;;;13.30;95.60;;;;;;5093014;28;20101;-54
2022/04/07 09:08:10;;;;;;;4.53;2.38;;;13.30;95.50;;;;;;5070072;28;20122;-51
2022/04/07 09:10:55;;;;;;;8.53;2.47;;;13.40;95.50;;;;;;5090489;28;20039;-54
2022/04/07 09:13:44;;;;;;;;;;;13.40;95.00;;;;;;5082518;28;20074;-56
2022/04/07 09:16:30;;;;;;;4.45;2.15;;;13.50;95.20;;;;;;5084653;28;19934;-52
2022/04/07 09:19:14;;;;;;;;;;;13.70;95.00;;;;;;5084566;28;20039;-55
2022/04/07 09:22:10;;;;;;;6.13;2.40;;;13.80;94.60;;;;;;5079208;28;19980;-53
2022/04/07 09:24:55;;;;;;;5.45;2.28;;;13.70;94.50;;;;;;5084460;28;20411;-57
2022/04/07 09:27:40;;;;;;;3.57;2.10;;;13.60;94.70;;;;;;5084396;28;20456;-57
2022/04/07 09:30:24;;;;;;;4.28;2.53;;;13.60;94.70;;;;;;5089236;28;20493;-57
2022/04/07 09:33:26;;;;;;;4.75;1.80;;;13.50;94.70;;;;;;5082546;28;20506;-53
2022/04/07 09:36:20;;;;;;;3.20;1.77;;;13.40;94.80;;;;;;5084697;28;20043;-53
2022/04/07 09:39:05;;;;;;;6.63;2.30;;;13.40;94.60;;;;;;5083915;28;20031;-55
2022/04/07 09:41:49;;;;;;;5.03;1.85;;;13.40;94.70;;;;;;5096405;28;20034;-54
2022/04/07 09:44:39;;;;;;;3.73;1.83;;;13.40;94.80;;;;;;5089781;28;20066;-55
2022/04/07 09:47:24;;;;;;;3.55;1.80;;;13.30;94.80;;;;;;5080562;28;20123;-50
2022/04/07 09:50:30;;;;;;;6.78;1.77;;;13.30;94.80;;;;;;5084525;28;20088;-53
2022/04/07 09:53:19;;;;;;;1.98;1.65;;;13.20;94.90;;;;;;5081975;28;20055;-55
2022/04/07 09:56:07;;;;;;;4.32;1.75;;;13.20;95.20;;;;;;5091840;28;20035;-54
2022/04/07 09:58:53;;;;;;;6.28;2.00;;;13.30;95.20;;;;;;5092558;28;20395;-55
2022/04/07 10:01:38;;;;;;;3.33;1.60;;;13.30;95.10;;;;;;5088260;28;20088;-61
2022/04/07 10:04:22;;;;;;;3.33;1.77;;;13.30;95.00;;;;;;5082465;28;20035;-54
2022/04/07 10:07:11;;;;;;;4.15;1.92;;;13.40;95.30;;;;;;5083386;28;20043;-54
2022/04/07 10:09:57;;;;;;;6.70;1.92;;;13.70;95.30;;;;;;5081071;28;20032;-53
2022/04/07 10:12:41;;;;;;;7.32;2.15;;;13.70;94.60;;;;;;5080295;28;20073;-53
2022/04/07 10:15:25;;;;;;;6.43;1.80;;;13.60;94.50;;;;;;5080222;28;20109;-54
2022/04/07 10:18:18;;;;;;;9.02;2.47;;;13.60;94.90;;;;;;5079073;28;20031;-55
2022/04/07 10:21:03;;;;;;;3.15;1.90;;;13.70;94.60;;;;;;5076997;28;20047;-51
2022/04/07 10:24:06;;;;;;;1.77;1.52;;;13.70;94.40;;;;;;5081169;28;20028;-56
2022/04/07 10:26:51;;;;;;;4.28;1.85;;;13.70;94.60;;;;;;5090944;28;20114;-50
2022/04/07 10:29:38;;;;;;;4.38;1.90;;;13.60;94.40;;;;;;5088543;28;20104;-54
2022/04/07 10:32:22;;;;;;;3.60;1.38;;;13.60;94.30;;;;;;5088142;28;20022;-53
2022/04/07 10:35:07;;;;;;;32.50;5.75;;;13.60;94.20;;;;;;5090900;28;20073;-54
2022/04/07 10:37:52;;;;;;;6.05;1.83;;;13.50;94.20;;;;;;5090853;28;20119;-53
2022/04/07 10:40:38;;;;;;;2.53;1.60;;;13.50;94.40;;;;;;5091058;28;20108;-51
2022/04/07 10:43:25;;;;;;;1.60;1.30;;;13.60;94.60;;;;;;5111237;28;20423;-54
2022/04/07 10:46:11;;;;;;;4.68;1.92;;;13.60;94.70;;;;;;5111971;28;20080;-52
2022/04/07 10:49:07;;;;;;;1.40;1.30;;;13.70;94.70;;;;;;5071008;28;20036;-53
2022/04/07 10:51:54;;;;;;;7.78;1.85;;;13.70;94.70;;;;;;5070802;28;20082;-55
2022/04/07 10:55:13;;;;;;;8.35;1.85;;;13.80;94.50;;;;;;5070966;28;20035;-57
2022/04/07 10:58:11;;;;;;;15.52;2.53;;;13.80;94.60;;;;;;5071018;28;20047;-55
2022/04/07 11:00:55;;;;;;;7.20;2.50;;;13.70;94.80;;;;;;5101383;28;20053;-49
2022/04/07 11:03:41;;;;;;;45.58;4.50;;;13.70;94.90;;;;;;5103098;28;20078;-52
2022/04/07 11:06:25;;;;;;;1.10;0.90;;;13.70;95.00;;;;;;5090947;28;20476;-52
2022/04/07 11:09:14;;;;;;;3.33;1.40;;;13.60;94.90;;;;;;5090696;28;20577;-55
2022/04/07 11:12:08;;;;;;;2.03;1.52;;;13.70;94.80;;;;;;5090025;28;20054;-54
2022/04/07 11:15:14;;;;;;;3.58;1.17;;;13.70;94.80;;;;;;5082535;28;20506;-55
2022/04/07 11:18:22;;;;;;;7.90;1.88;;;13.70;94.90;;;;;;5073042;28;20055;-54
2022/04/07 11:21:11;;;;;;;2.22;1.15;;;13.90;94.90;;;;;;5080097;28;20031;-52
2022/04/07 11:23:56;;;;;;;3.20;1.05;;;14.00;94.60;;;;;;5084793;28;20073;-53
2022/04/07 11:26:41;;;;;;;17.70;2.95;;;14.00;94.80;;;;;;5079142;28;20108;-53
2022/04/07 11:29:33;;;;;;;14.77;2.43;;;14.10;94.70;;;;;;5078359;28;20031;-56
2022/04/07 11:32:17;;;;;;;6.13;1.40;;;14.20;94.60;;;;;;5081559;28;20039;-52
2022/04/07 11:35:17;;;;;;;28.70;3.40;;;14.30;94.70;;;;;;5082148;28;20035;-55
2022/04/07 11:38:02;;;;;;;13.13;2.00;;;14.30;94.50;;;;;;5084238;28;20027;-56
2022/04/07 11:41:05;;;;;;;4.55;1.65;;;14.20;94.90;;;;;;5078395;28;20079;-56
2022/04/07 11:43:52;;;;;;;8.50;2.10;;;14.20;95.20;;;;;;5085807;28;20377;-56
2022/04/07 11:46:37;;;;;;;5.20;1.65;;;14.00;96.00;;;;;;5087621;28;20071;-55
2022/04/07 11:49:23;;;;;;;4.13;1.75;;;14.00;96.60;;;;;;5095354;28;20031;-52
2022/04/07 11:52:07;;;;;;;3.05;1.50;;;14.10;96.60;;;;;;5092398;28;20611;-54
2022/04/07 11:54:56;;;;;;;2.22;1.35;;;14.30;96.10;;;;;;5093965;28;20085;-52
2022/04/07 11:57:41;;;;;;;4.78;1.45;;;14.50;95.70;;;;;;5093778;28;20568;-53
2022/04/07 12:00:29;;;;;;;;;;;14.60;95.00;;;;;;5094736;28;20099;-51
2022/04/07 12:03:13;;;;;;;3.33;1.58;;;14.50;94.70;;;;;;5093219;28;19915;-53
2022/04/07 12:06:00;;;;;;;1.30;1.20;;;14.70;94.60;;;;;;5087250;28;20035;-53
2022/04/07 12:08:44;;;;;;;4.45;1.70;;;14.70;94.60;;;;;;5093334;28;20073;-52
2022/04/07 12:11:30;;;;;;;7.03;1.90;;;14.80;94.50;;;;;;5093200;28;20043;-50
2022/04/07 12:14:15;;;;;;;4.57;1.38;;;14.80;94.50;;;;;;5086111;28;20035;-51
2022/04/07 12:17:00;;;;;;;47.22;5.22;;;14.90;94.50;;;;;;5085761;28;20051;-54
2022/04/07 12:19:48;;;;;;;2.60;1.10;;;14.90;94.40;;;;;;5087325;28;20099;-50
2022/04/07 12:22:32;;;;;;;3.35;1.02;;;14.80;94.20;;;;;;5078095;28;20085;-51
2022/04/07 12:25:23;;;;;;;;;;;14.80;94.10;;;;;;5074557;28;20090;-55
2022/04/07 12:28:12;;;;;;;5.00;1.73;;;14.70;94.00;;;;;;5091605;28;19953;-53
2022/04/07 12:30:56;;;;;;;6.70;1.48;;;14.70;94.40;;;;;;5092837;28;20078;-52
2022/04/07 12:33:45;;;;;;;13.00;2.20;;;14.70;94.20;;;;;;5109381;28;20074;-52
2022/04/07 12:36:30;;;;;;;2.38;1.20;;;14.70;94.30;;;;;;5102580;28;20123;-50
2022/04/07 12:39:15;;;;;;;6.43;1.80;;;14.60;94.60;;;;;;5097063;28;20032;-56
2022/04/07 12:42:05;;;;;;;3.60;1.00;;;14.70;94.60;;;;;;5084995;28;20052;-51
2022/04/07 12:44:49;;;;;;;5.63;1.60;;;14.60;94.60;;;;;;5090639;28;20035;-54
2022/04/07 12:47:34;;;;;;;5.30;1.25;;;14.50;94.80;;;;;;5094107;28;20044;-48
2022/04/07 12:50:27;;;;;;;3.30;1.17;;;14.50;94.70;;;;;;5112811;28;20046;-53
2022/04/07 12:53:31;;;;;;;11.93;2.00;;;14.50;94.70;;;;;;5084676;28;20116;-54
2022/04/07 12:56:20;;;;;;;11.55;1.70;;;14.50;94.60;;;;;;5085359;28;20376;-52
2022/04/07 12:59:14;;;;;;;14.10;2.78;;;14.40;94.80;;;;;;5083237;28;20043;-51
2022/04/07 13:01:59;;;;;;;5.97;1.83;;;14.50;94.70;;;;;;5083272;28;20082;-53
2022/04/07 13:04:53;;;;;;;20.23;2.72;;;14.50;94.80;;;;;;5082742;28;20468;-50
2022/04/07 13:07:38;;;;;;;2.72;2.08;;;14.50;94.80;;;;;;5072396;28;20566;-54
2022/04/07 13:10:23;;;;;;;9.13;2.17;;;14.50;94.90;;;;;;5079890;28;20047;-50
2022/04/07 13:13:07;;;;;;;8.13;1.58;;;14.40;95.20;;;;;;5079465;28;20034;-56
2022/04/07 13:15:51;;;;;;;1.42;1.20;;;14.20;96.30;;;;;;5085603;28;20036;-53
2022/04/07 13:18:35;;;;;;;2.73;1.17;;;14.10;97.00;;;;;;5080440;28;20534;-54
2022/04/07 13:21:20;;;;;;;1.90;1.20;;;14.00;98.10;;;;;;5090835;28;20328;-49
2022/04/07 13:24:05;;;;;;;2.13;1.73;;;13.60;99.30;;;;;;5082886;28;20587;-52
2022/04/07 13:26:49;;;;;;;1.63;1.52;;;13.40;99.90;;;;;;5083776;28;20411;-59
2022/04/07 13:29:36;;;;;;;1.70;1.50;;;13.30;99.90;;;;;;5091751;28;20138;-53
2022/04/07 13:32:24;;;;;;;2.70;1.65;;;13.20;99.90;;;;;;5090315;28;20047;-46
2022/04/07 13:35:09;;;;;;;2.28;1.35;;;13.20;99.90;;;;;;5084354;28;20682;-56
2022/04/07 13:37:53;;;;;;;2.75;1.42;;;13.20;99.90;;;;;;5091882;28;20071;-48
2022/04/07 13:40:37;;;;;;;2.08;1.60;;;13.20;99.90;;;;;;5091660;28;20113;-54
2022/04/07 13:43:21;;;;;;;1.50;1.30;;;13.30;99.90;;;;;;5111098;28;20031;-57
2022/04/07 13:46:05;;;;;;;1.10;1.00;;;13.30;99.90;;;;;;5111587;28;20077;-52
2022/04/07 13:48:50;;;;;;;2.55;1.65;;;13.40;99.90;;;;;;5092039;28;20043;-54
2022/04/07 13:51:35;;;;;;;11.90;2.70;;;13.40;99.90;;;;;;5092299;28;20047;-59
2022/04/07 13:54:20;;;;;;;3.60;1.73;;;12.40;99.90;;;;;;5091830;28;20453;-58
2022/04/07 13:57:04;;;;;;;;;;;10.30;99.90;;;;;;5097561;28;20035;-62
2022/04/07 13:59:48;;;;;;;3.92;1.42;;;9.60;99.90;;;;;;5090781;28;19918;-58
2022/04/07 14:02:32;;;;;;;3.95;1.63;;;9.30;99.90;;;;;;5091244;28;20039;-60
2022/04/07 14:05:16;;;;;;;1.53;1.43;;;9.00;99.90;;;;;;5091127;28;20039;-58
2022/04/07 14:08:01;;;;;;;3.28;1.58;;;8.90;99.90;;;;;;5071016;28;20060;-61
2022/04/07 14:10:45;;;;;;;2.45;1.50;;;8.80;99.90;;;;;;5071431;28;20153;-59
2022/04/07 14:13:29;;;;;;;2.83;1.75;;;8.80;99.90;;;;;;5071705;28;20087;-60
2022/04/07 14:16:13;;;;;;;1.25;1.02;;;8.90;99.90;;;;;;5087800;28;20035;-59
2022/04/07 14:18:57;;;;;;;2.58;1.38;;;8.90;99.90;;;;;;5085441;28;20130;-58
2022/04/07 14:21:41;;;;;;;2.07;1.30;;;8.90;99.90;;;;;;5090325;28;20034;-59
2022/04/07 14:24:25;;;;;;;1.33;1.10;;;8.80;99.90;;;;;;5097369;28;20054;-59